createdAt,value
2017-08-11T00:00:16.420Z,14.70
2017-08-11T00:02:43.921Z,14.70
2017-08-11T00:05:11.437Z,14.70
2017-08-11T00:07:38.959Z,14.70
2017-08-11T00:10:06.475Z,14.70
2017-08-11T00:12:34.807Z,14.60
2017-08-11T00:15:02.341Z,14.60
2017-08-11T00:17:29.848Z,14.60
2017-08-11T00:19:57.460Z,14.60
2017-08-11T00:22:25.002Z,14.50
2017-08-11T00:24:52.516Z,14.50
2017-08-11T00:27:20.043Z,14.40
2017-08-11T00:29:47.528Z,14.50
2017-08-11T00:32:15.009Z,14.50
2017-08-11T00:34:43.276Z,14.50
2017-08-11T00:37:10.780Z,14.50
2017-08-11T00:39:38.306Z,14.50
2017-08-11T00:42:06.631Z,14.50
2017-08-11T00:44:34.156Z,14.50
2017-08-11T00:47:02.453Z,14.50
2017-08-11T00:49:29.980Z,14.50
2017-08-11T00:51:58.269Z,14.50
2017-08-11T00:54:25.791Z,14.50
2017-08-11T00:56:53.337Z,14.50
2017-08-11T00:59:20.835Z,14.50
2017-08-11T01:01:49.117Z,14.50
2017-08-11T01:04:16.667Z,14.50
2017-08-11T01:06:44.938Z,14.50
2017-08-11T01:09:13.208Z,14.50
2017-08-11T01:11:41.543Z,14.60
2017-08-11T01:14:09.062Z,14.60
2017-08-11T01:16:36.564Z,14.60
2017-08-11T01:19:04.105Z,14.60
2017-08-11T01:21:31.628Z,14.70
2017-08-11T01:23:59.895Z,14.80
2017-08-11T01:26:28.205Z,14.80
2017-08-11T01:28:55.731Z,14.80
2017-08-11T01:31:24.018Z,14.90
2017-08-11T01:33:52.312Z,14.90
2017-08-11T01:36:19.816Z,14.90
2017-08-11T01:38:47.342Z,15.00
2017-08-11T01:41:14.891Z,15.00
2017-08-11T01:43:42.462Z,15.10
2017-08-11T01:46:09.982Z,15.10
2017-08-11T01:48:38.270Z,15.10
2017-08-11T01:51:06.551Z,15.10
2017-08-11T01:53:34.052Z,15.10
2017-08-11T01:56:01.589Z,15.10
2017-08-11T01:58:29.109Z,15.10
2017-08-11T02:00:57.393Z,15.10
2017-08-11T02:03:25.802Z,15.10
2017-08-11T02:05:53.323Z,15.00
2017-08-11T02:08:21.601Z,15.00
2017-08-11T02:10:50.016Z,15.00
2017-08-11T02:13:17.520Z,14.90
2017-08-11T02:15:45.032Z,15.00
2017-08-11T02:18:12.574Z,15.00
2017-08-11T02:20:40.395Z,14.90
2017-08-11T02:23:08.017Z,14.90
2017-08-11T02:25:35.559Z,14.90
2017-08-11T02:28:03.135Z,14.90
2017-08-11T02:30:30.649Z,14.90
2017-08-11T02:32:58.962Z,14.80
2017-08-11T02:35:26.529Z,14.80
2017-08-11T02:37:54.036Z,14.80
2017-08-11T02:40:21.648Z,14.80
2017-08-11T02:42:49.167Z,14.80
2017-08-11T02:45:17.454Z,14.80
2017-08-11T02:47:45.755Z,14.80
2017-08-11T02:50:13.265Z,14.70
2017-08-11T02:52:40.785Z,14.70
2017-08-11T02:55:08.313Z,14.70
2017-08-11T02:57:35.811Z,14.70
2017-08-11T03:00:03.327Z,14.80
2017-08-11T03:02:30.878Z,14.80
2017-08-11T03:04:59.144Z,14.80
2017-08-11T03:07:27.411Z,14.80
2017-08-11T03:09:54.934Z,14.70
2017-08-11T03:12:22.436Z,14.80
2017-08-11T03:14:50.708Z,14.70
2017-08-11T03:17:19.003Z,14.70
2017-08-11T03:19:46.522Z,14.70
2017-08-11T03:22:14.043Z,14.60
2017-08-11T03:24:41.600Z,14.60
2017-08-11T03:27:09.118Z,14.60
2017-08-11T03:29:37.392Z,14.60
2017-08-11T03:32:05.688Z,14.60
2017-08-11T03:34:33.196Z,14.50
2017-08-11T03:37:00.733Z,14.50
2017-08-11T03:39:28.272Z,14.50
2017-08-11T03:41:55.790Z,14.50
2017-08-11T03:44:23.309Z,14.50
2017-08-11T03:46:50.854Z,14.50
2017-08-11T03:49:18.356Z,14.50
2017-08-11T03:51:45.885Z,14.50
2017-08-11T03:54:13.425Z,14.50
2017-08-11T03:56:40.947Z,14.50
2017-08-11T03:59:08.447Z,14.50
2017-08-11T04:01:35.976Z,14.60
2017-08-11T04:04:04.239Z,14.50
2017-08-11T04:06:31.762Z,14.50
2017-08-11T04:08:59.287Z,14.60
2017-08-11T04:11:26.788Z,14.60
2017-08-11T04:13:54.287Z,14.60
2017-08-11T04:16:22.588Z,14.50
2017-08-11T04:18:50.156Z,14.50
2017-08-11T04:21:17.674Z,14.50
2017-08-11T04:23:45.967Z,14.40
2017-08-11T04:26:13.471Z,14.40
2017-08-11T04:28:40.975Z,14.40
2017-08-11T04:31:09.280Z,14.40
2017-08-11T04:33:36.784Z,14.40
2017-08-11T04:36:04.306Z,14.50
2017-08-11T04:38:31.845Z,14.50
2017-08-11T04:40:59.417Z,14.40
2017-08-11T04:43:26.915Z,14.40
2017-08-11T04:45:54.443Z,14.40
2017-08-11T04:48:21.940Z,14.40
2017-08-11T04:50:49.458Z,14.50
2017-08-11T04:53:17.003Z,14.50
2017-08-11T04:55:44.503Z,14.50
2017-08-11T04:58:12.003Z,14.40
2017-08-11T05:00:39.578Z,14.40
2017-08-11T05:03:07.083Z,14.40
2017-08-11T05:05:34.597Z,14.40
2017-08-11T05:08:02.127Z,14.40
2017-08-11T05:10:29.686Z,14.40
2017-08-11T05:12:57.971Z,14.40
2017-08-11T05:15:25.522Z,14.40
2017-08-11T05:17:53.828Z,14.40
2017-08-11T05:20:21.346Z,14.40
2017-08-11T05:22:49.639Z,14.40
2017-08-11T05:25:17.157Z,14.40
2017-08-11T05:27:44.679Z,14.40
2017-08-11T05:30:12.217Z,14.50
2017-08-11T05:32:39.724Z,14.50
2017-08-11T05:35:07.224Z,14.50
2017-08-11T05:37:35.530Z,14.50
2017-08-11T05:40:03.045Z,14.50
2017-08-11T05:42:31.333Z,14.50
2017-08-11T05:44:59.624Z,14.50
2017-08-11T05:47:27.136Z,14.50
2017-08-11T05:49:54.639Z,14.50
2017-08-11T05:52:22.187Z,14.60
2017-08-11T05:54:50.451Z,14.60
2017-08-11T05:57:18.719Z,14.60
2017-08-11T05:59:46.253Z,14.60
2017-08-11T06:02:13.751Z,14.60
2017-08-11T06:04:42.029Z,14.70
2017-08-11T06:07:10.794Z,14.70
2017-08-11T06:09:38.310Z,14.70
2017-08-11T06:12:05.812Z,14.70
2017-08-11T06:14:33.343Z,14.70
2017-08-11T06:17:00.848Z,14.60
2017-08-11T06:19:29.116Z,14.70
2017-08-11T06:21:57.432Z,14.70
2017-08-11T06:24:24.962Z,14.70
2017-08-11T06:26:52.463Z,14.80
2017-08-11T06:29:20.000Z,14.80
2017-08-11T06:31:47.514Z,14.80
2017-08-11T06:34:15.015Z,14.80
2017-08-11T06:36:42.558Z,14.90
2017-08-11T06:39:10.144Z,14.90
2017-08-11T06:41:37.662Z,14.90
2017-08-11T06:44:05.951Z,15.00
2017-08-11T06:46:34.219Z,15.00
2017-08-11T06:49:02.502Z,15.00
2017-08-11T06:51:30.801Z,15.00
2017-08-11T06:53:58.318Z,15.00
2017-08-11T06:56:26.588Z,15.00
2017-08-11T06:58:54.130Z,15.00
2017-08-11T07:01:21.646Z,15.00
2017-08-11T07:03:49.170Z,15.00
2017-08-11T07:06:17.465Z,15.10
2017-08-11T07:08:44.969Z,15.00
2017-08-11T07:11:12.476Z,15.00
2017-08-11T07:13:40.782Z,15.10
2017-08-11T07:16:08.283Z,15.10
2017-08-11T07:18:35.802Z,15.10
2017-08-11T07:21:03.338Z,15.10
2017-08-11T07:23:30.876Z,15.10
2017-08-11T07:25:59.148Z,15.10
2017-08-11T07:28:27.458Z,15.00
2017-08-11T07:30:55.028Z,15.10
2017-08-11T07:33:22.550Z,15.00
2017-08-11T07:35:50.856Z,15.10
2017-08-11T07:38:18.386Z,15.10
2017-08-11T07:40:46.658Z,15.00
2017-08-11T07:43:14.973Z,15.10
2017-08-11T07:45:42.494Z,15.10
2017-08-11T07:48:10.786Z,15.10
2017-08-11T07:50:39.197Z,15.10
2017-08-11T07:53:06.704Z,15.10
2017-08-11T07:55:34.994Z,15.20
2017-08-11T07:58:03.284Z,15.20
2017-08-11T08:00:30.797Z,15.20
2017-08-11T08:02:58.299Z,15.20
2017-08-11T08:05:25.823Z,15.20
2017-08-11T08:07:53.335Z,15.20
2017-08-11T08:10:20.835Z,15.30
2017-08-11T08:12:48.398Z,15.30
2017-08-11T08:15:16.010Z,15.30
2017-08-11T08:17:43.527Z,15.30
2017-08-11T08:20:11.824Z,15.30
2017-08-11T08:22:39.405Z,15.30
2017-08-11T08:25:06.912Z,15.30
2017-08-11T08:27:34.523Z,15.40
2017-08-11T08:30:02.028Z,15.50
2017-08-11T08:32:29.545Z,15.50
2017-08-11T08:34:57.081Z,15.50
2017-08-11T08:37:24.598Z,15.60
2017-08-11T08:39:52.228Z,15.60
2017-08-11T08:42:19.774Z,15.60
2017-08-11T08:44:47.334Z,15.70
2017-08-11T08:47:14.840Z,15.60
2017-08-11T08:49:43.132Z,15.60
2017-08-11T08:52:11.418Z,15.60
2017-08-11T08:54:38.920Z,15.60
2017-08-11T08:57:06.466Z,15.70
2017-08-11T08:59:33.968Z,15.70
2017-08-11T09:02:02.257Z,15.80
2017-08-11T09:04:30.675Z,15.80
2017-08-11T09:06:58.176Z,15.80
2017-08-11T09:09:25.793Z,15.80
2017-08-11T09:11:53.662Z,15.80
2017-08-11T09:14:21.165Z,15.80
2017-08-11T09:16:48.673Z,15.80
2017-08-11T09:19:16.217Z,15.80
2017-08-11T09:21:43.746Z,15.90
2017-08-11T09:24:12.011Z,15.80
2017-08-11T09:26:51.580Z,15.80
2017-08-11T09:29:31.738Z,15.80
2017-08-11T09:32:11.173Z,15.80
2017-08-11T09:34:51.286Z,15.70
2017-08-11T09:37:18.830Z,15.70
2017-08-11T09:39:46.346Z,15.70
2017-08-11T09:42:13.847Z,15.60
2017-08-11T09:44:41.387Z,15.60
2017-08-11T09:47:08.906Z,15.60
2017-08-11T09:49:37.180Z,15.70
2017-08-11T09:52:05.602Z,15.70
2017-08-11T09:54:33.159Z,15.70
2017-08-11T09:57:00.693Z,15.70
2017-08-11T09:59:28.243Z,15.80
2017-08-11T10:01:56.529Z,15.90
2017-08-11T10:04:24.058Z,15.90
2017-08-11T10:06:51.602Z,16.00
2017-08-11T10:09:19.095Z,16.00
2017-08-11T10:11:47.378Z,16.00
2017-08-11T10:14:14.921Z,15.90
2017-08-11T10:16:43.179Z,15.90
2017-08-11T10:19:10.680Z,15.90
2017-08-11T10:21:38.204Z,15.80
2017-08-11T10:24:05.708Z,15.80
2017-08-11T10:26:33.273Z,15.80
2017-08-11T10:29:00.807Z,15.80
2017-08-11T10:31:28.322Z,15.80
2017-08-11T10:33:55.828Z,15.70
2017-08-11T10:36:23.355Z,15.80
2017-08-11T10:38:50.852Z,15.70
2017-08-11T10:41:18.343Z,15.80
2017-08-11T10:43:45.885Z,15.70
2017-08-11T10:46:13.384Z,15.70
2017-08-11T10:48:40.883Z,15.80
2017-08-11T10:51:08.433Z,15.80
2017-08-11T10:53:35.931Z,15.80
2017-08-11T10:56:03.454Z,15.80
2017-08-11T10:58:30.980Z,15.80
2017-08-11T11:00:58.486Z,15.90
2017-08-11T11:03:25.979Z,15.90
2017-08-11T11:05:53.501Z,15.90
2017-08-11T11:08:21.002Z,15.90
2017-08-11T11:10:48.572Z,15.90
2017-08-11T11:13:17.433Z,15.90
2017-08-11T11:15:44.942Z,15.90
2017-08-11T11:18:12.449Z,16.00
2017-08-11T11:20:39.965Z,16.00
2017-08-11T11:23:07.469Z,16.00
2017-08-11T11:25:34.967Z,15.90
2017-08-11T11:28:03.278Z,15.80
2017-08-11T11:30:30.793Z,15.80
2017-08-11T11:32:59.142Z,15.80
2017-08-11T11:35:26.688Z,15.70
2017-08-11T11:37:54.193Z,15.70
2017-08-11T11:40:22.469Z,15.60
2017-08-11T11:42:50.751Z,15.60
2017-08-11T11:45:18.338Z,15.60
2017-08-11T11:47:45.858Z,15.70
2017-08-11T11:50:14.992Z,15.80
2017-08-11T11:52:42.492Z,15.70
2017-08-11T11:55:10.030Z,15.80
2017-08-11T11:57:37.560Z,15.80
2017-08-11T12:00:05.050Z,15.80
2017-08-11T12:02:32.566Z,15.80
2017-08-11T12:05:00.110Z,15.60
2017-08-11T12:07:28.420Z,15.60
2017-08-11T12:09:55.970Z,15.50
2017-08-11T12:12:23.519Z,15.60
2017-08-11T12:14:51.047Z,15.50
2017-08-11T12:17:18.540Z,15.50
2017-08-11T12:19:46.114Z,15.50
2017-08-11T12:22:13.674Z,15.60
2017-08-11T12:24:41.194Z,15.60
2017-08-11T12:27:09.507Z,15.60
2017-08-11T12:29:37.070Z,15.50
2017-08-11T12:32:04.594Z,15.60
2017-08-11T12:34:32.883Z,15.50
2017-08-11T12:37:00.401Z,15.50
2017-08-11T12:39:27.920Z,15.40
2017-08-11T12:41:55.448Z,15.40
2017-08-11T12:44:23.715Z,15.30
2017-08-11T12:46:52.028Z,15.20
2017-08-11T12:49:19.589Z,15.20
2017-08-11T12:51:47.147Z,15.20
2017-08-11T12:54:14.666Z,15.20
2017-08-11T12:56:42.956Z,15.20
2017-08-11T12:59:10.460Z,15.10
2017-08-11T13:01:37.959Z,15.20
2017-08-11T13:04:06.255Z,15.10
2017-08-11T13:06:33.772Z,15.10
2017-08-11T13:09:01.290Z,15.10
2017-08-11T13:11:28.824Z,15.10
2017-08-11T13:13:56.409Z,15.20
2017-08-11T13:16:23.916Z,15.30
2017-08-11T13:18:51.462Z,15.30
2017-08-11T13:21:18.981Z,15.30
2017-08-11T13:23:46.484Z,15.30
2017-08-11T13:26:14.102Z,15.30
2017-08-11T13:28:41.661Z,15.30
2017-08-11T13:31:09.159Z,15.40
2017-08-11T13:33:36.679Z,15.60
2017-08-11T13:36:04.179Z,15.70
2017-08-11T13:38:31.679Z,15.80
2017-08-11T13:40:59.234Z,15.90
2017-08-11T13:43:26.757Z,16.00
2017-08-11T13:45:54.312Z,16.00
2017-08-11T13:48:21.836Z,16.20
2017-08-11T13:50:49.370Z,16.20
2017-08-11T13:53:16.893Z,16.20
2017-08-11T13:55:44.511Z,16.00
2017-08-11T13:58:12.030Z,15.80
2017-08-11T14:00:40.299Z,15.70
2017-08-11T14:03:08.717Z,15.70
2017-08-11T14:05:36.225Z,15.70
2017-08-11T14:08:03.835Z,15.70
2017-08-11T14:10:31.378Z,15.70
2017-08-11T14:12:58.898Z,15.70
2017-08-11T14:15:26.412Z,15.60
2017-08-11T14:17:53.932Z,15.60
2017-08-11T14:20:22.196Z,15.80
2017-08-11T14:22:49.702Z,15.80
2017-08-11T14:25:17.242Z,15.90
2017-08-11T14:27:44.736Z,16.00
2017-08-11T14:30:12.231Z,16.20
2017-08-11T14:32:39.774Z,16.40
2017-08-11T14:35:07.272Z,16.50
2017-08-11T14:37:34.794Z,16.60
2017-08-11T14:40:02.305Z,16.70
2017-08-11T14:42:29.822Z,16.70
2017-08-11T14:44:58.107Z,16.80
2017-08-11T14:47:26.386Z,16.70
2017-08-11T14:49:54.653Z,16.70
2017-08-11T14:52:22.172Z,16.70
2017-08-11T14:54:49.672Z,16.80
2017-08-11T14:57:17.982Z,16.60
2017-08-11T14:59:45.492Z,16.60
2017-08-11T15:02:13.106Z,16.60
2017-08-11T15:04:40.632Z,16.60
2017-08-11T15:07:08.901Z,16.70
2017-08-11T15:09:37.171Z,16.80
2017-08-11T15:12:04.734Z,16.70
2017-08-11T15:14:33.009Z,16.70
2017-08-11T15:17:01.267Z,16.60
2017-08-11T15:19:28.784Z,16.50
2017-08-11T15:21:56.288Z,16.40
2017-08-11T15:24:23.903Z,16.30
2017-08-11T15:26:51.399Z,16.20
2017-08-11T15:29:18.918Z,16.20
2017-08-11T15:31:46.460Z,16.20
2017-08-11T15:34:13.971Z,16.00
2017-08-11T15:36:41.476Z,16.00
2017-08-11T15:39:09.054Z,16.00
2017-08-11T15:41:36.551Z,16.10
2017-08-11T15:44:04.174Z,16.10
2017-08-11T15:46:31.733Z,16.20
2017-08-11T15:48:59.230Z,16.20
2017-08-11T15:51:26.737Z,16.20
2017-08-11T15:53:54.260Z,16.10
2017-08-11T15:56:22.583Z,15.80
2017-08-11T15:58:50.079Z,15.80
2017-08-11T16:01:17.614Z,15.60
2017-08-11T16:03:45.375Z,15.40
2017-08-11T16:06:12.867Z,15.20
2017-08-11T16:08:40.480Z,15.10
2017-08-11T16:11:07.992Z,15.00
2017-08-11T16:13:35.588Z,14.90
2017-08-11T16:16:03.130Z,14.80
2017-08-11T16:18:31.436Z,14.60
2017-08-11T16:20:58.994Z,14.70
2017-08-11T16:23:26.550Z,14.60
2017-08-11T16:25:54.052Z,14.60
2017-08-11T16:28:21.556Z,14.60
2017-08-11T16:30:49.072Z,14.50
2017-08-11T16:33:16.688Z,14.50
2017-08-11T16:35:44.225Z,14.50
2017-08-11T16:38:11.805Z,14.50
2017-08-11T16:40:39.307Z,14.50
2017-08-11T16:43:06.854Z,14.50
2017-08-11T16:45:34.356Z,14.40
2017-08-11T16:48:01.876Z,14.50
2017-08-11T16:50:29.409Z,14.40
2017-08-11T16:52:56.908Z,14.40
2017-08-11T16:55:24.514Z,14.40
2017-08-11T16:57:52.043Z,14.30
2017-08-11T17:00:20.330Z,14.30
2017-08-11T17:02:47.857Z,14.30
2017-08-11T17:05:15.406Z,14.30
2017-08-11T17:07:43.030Z,14.30
2017-08-11T17:10:10.529Z,14.30
2017-08-11T17:12:38.044Z,14.20
2017-08-11T17:15:05.558Z,14.20
2017-08-11T17:17:33.866Z,14.00
2017-08-11T17:20:01.439Z,14.00
2017-08-11T17:22:28.996Z,14.00
2017-08-11T17:24:56.517Z,14.00
2017-08-11T17:27:24.793Z,14.00
2017-08-11T17:29:53.060Z,13.90
2017-08-11T17:32:21.363Z,13.80
2017-08-11T17:34:48.864Z,13.80
2017-08-11T17:37:16.410Z,13.70
2017-08-11T17:39:43.915Z,13.70
2017-08-11T17:42:12.237Z,13.60
2017-08-11T17:44:39.784Z,13.60
2017-08-11T17:47:07.301Z,13.70
2017-08-11T17:49:34.827Z,13.60
2017-08-11T17:52:02.327Z,13.60
2017-08-11T17:54:30.610Z,13.40
2017-08-11T17:56:58.920Z,13.40
2017-08-11T17:59:26.431Z,13.40
2017-08-11T18:01:53.959Z,13.40
2017-08-11T18:04:21.483Z,13.40
2017-08-11T18:06:49.010Z,13.30
2017-08-11T18:09:17.330Z,13.30
2017-08-11T18:11:44.853Z,13.30
2017-08-11T18:14:13.128Z,13.30
2017-08-11T18:16:41.427Z,13.40
2017-08-11T18:19:08.932Z,13.30
2017-08-11T18:21:36.435Z,13.40
2017-08-11T18:24:04.020Z,13.30
2017-08-11T18:26:31.538Z,13.20
2017-08-11T18:28:59.827Z,13.20
2017-08-11T18:31:28.119Z,13.30
2017-08-11T18:33:55.636Z,13.30
2017-08-11T18:36:23.909Z,13.30
2017-08-11T18:38:51.521Z,13.30
2017-08-11T18:41:19.046Z,13.30
2017-08-11T18:43:47.315Z,13.40
2017-08-11T18:46:15.627Z,13.40
2017-08-11T18:48:43.131Z,13.40
2017-08-11T18:51:10.631Z,13.40
2017-08-11T18:53:38.182Z,13.50
2017-08-11T18:56:06.486Z,13.50
2017-08-11T18:58:33.992Z,13.50
2017-08-11T19:01:01.503Z,13.60
2017-08-11T19:03:29.003Z,13.50
2017-08-11T19:05:56.532Z,13.50
2017-08-11T19:08:24.034Z,13.60
2017-08-11T19:10:52.315Z,13.50
2017-08-11T19:13:20.604Z,13.60
2017-08-11T19:15:48.121Z,13.50
2017-08-11T19:18:15.672Z,13.50
2017-08-11T19:20:43.205Z,13.50
2017-08-11T19:23:10.732Z,13.50
2017-08-11T19:25:39.014Z,13.60
2017-08-11T19:28:06.534Z,13.50
2017-08-11T19:30:34.325Z,13.60
2017-08-11T19:33:02.596Z,13.60
2017-08-11T19:35:30.864Z,13.50
2017-08-11T19:37:58.388Z,13.50
2017-08-11T19:40:25.927Z,13.50
2017-08-11T19:42:53.463Z,13.50
2017-08-11T19:45:21.779Z,13.50
2017-08-11T19:47:49.298Z,13.50
2017-08-11T19:50:16.799Z,13.50
2017-08-11T19:52:44.444Z,13.50
2017-08-11T19:55:11.947Z,13.50
2017-08-11T19:57:39.561Z,13.50
2017-08-11T20:00:07.098Z,13.40
2017-08-11T20:02:34.599Z,13.40
2017-08-11T20:05:02.155Z,13.30
2017-08-11T20:07:29.671Z,13.30
2017-08-11T20:09:57.197Z,13.30
2017-08-11T20:12:24.812Z,13.30
2017-08-11T20:14:52.372Z,13.20
2017-08-11T20:17:19.921Z,13.10
2017-08-11T20:19:47.424Z,13.00
2017-08-11T20:22:14.948Z,13.00
2017-08-11T20:24:42.490Z,12.90
2017-08-11T20:27:10.042Z,12.80
2017-08-11T20:29:37.568Z,12.80
2017-08-11T20:32:05.106Z,12.70
2017-08-11T20:34:32.611Z,12.70
2017-08-11T20:37:00.147Z,12.70
2017-08-11T20:39:27.669Z,12.70
2017-08-11T20:41:55.198Z,12.70
2017-08-11T20:44:22.743Z,12.70
2017-08-11T20:46:50.269Z,12.70
2017-08-11T20:49:17.799Z,12.70
2017-08-11T20:51:45.299Z,12.60
2017-08-11T20:54:12.813Z,12.60
2017-08-11T20:56:40.350Z,12.60
2017-08-11T20:59:07.878Z,12.50
2017-08-11T21:01:36.202Z,12.40
2017-08-11T21:04:03.753Z,12.40
2017-08-11T21:06:31.277Z,12.30
2017-08-11T21:08:59.543Z,12.30
2017-08-11T21:11:27.106Z,12.30
2017-08-11T21:13:55.394Z,12.30
2017-08-11T21:16:23.660Z,12.30
2017-08-11T21:18:51.952Z,12.40
2017-08-11T21:21:20.238Z,12.40
2017-08-11T21:23:47.753Z,12.40
2017-08-11T21:26:15.286Z,12.40
2017-08-11T21:28:42.788Z,12.50
2017-08-11T21:31:11.069Z,12.40
2017-08-11T21:33:39.355Z,12.40
2017-08-11T21:36:07.626Z,12.30
2017-08-11T21:38:35.915Z,12.30
2017-08-11T21:41:03.497Z,12.20
2017-08-11T21:43:31.003Z,12.30
2017-08-11T21:45:58.523Z,12.30
2017-08-11T21:48:26.065Z,12.30
2017-08-11T21:50:53.587Z,12.30
2017-08-11T21:53:21.864Z,12.20
2017-08-11T21:55:50.164Z,12.20
2017-08-11T21:58:17.689Z,12.10
2017-08-11T22:00:45.302Z,12.10
2017-08-11T22:03:12.841Z,12.10
2017-08-11T22:05:40.345Z,12.10
2017-08-11T22:08:07.870Z,12.10
2017-08-11T22:10:35.399Z,12.10
2017-08-11T22:13:03.710Z,12.10
2017-08-11T22:15:31.235Z,12.10
2017-08-11T22:17:59.545Z,12.10
2017-08-11T22:20:27.168Z,12.10
2017-08-11T22:22:54.706Z,12.10
2017-08-11T22:25:22.285Z,12.10
2017-08-11T22:27:49.803Z,12.10
2017-08-11T22:30:18.076Z,12.10
2017-08-11T22:32:46.529Z,12.10
2017-08-11T22:35:14.063Z,12.10
2017-08-11T22:37:41.609Z,12.10
2017-08-11T22:40:09.133Z,12.10
2017-08-11T22:42:37.415Z,12.10
2017-08-11T22:45:05.708Z,12.10
2017-08-11T22:47:33.200Z,12.10
2017-08-11T22:50:00.700Z,12.10
2017-08-11T22:52:29.024Z,12.10
2017-08-11T22:54:56.528Z,12.10
2017-08-11T22:57:24.033Z,12.10
2017-08-11T22:59:51.555Z,12.10
2017-08-11T23:02:19.846Z,12.20
2017-08-11T23:04:47.374Z,12.10
2017-08-11T23:07:14.895Z,12.10
2017-08-11T23:09:42.445Z,12.10
2017-08-11T23:12:09.962Z,12.10
2017-08-11T23:14:38.263Z,12.20
2017-08-11T23:17:05.843Z,12.20
2017-08-11T23:19:33.354Z,12.20
2017-08-11T23:22:01.644Z,12.30
2017-08-11T23:24:29.184Z,12.30
2017-08-11T23:26:57.470Z,12.40
2017-08-11T23:29:25.786Z,12.40
2017-08-11T23:31:53.284Z,12.40
2017-08-11T23:34:20.806Z,12.40
2017-08-11T23:36:48.345Z,12.40
2017-08-11T23:39:15.864Z,12.40
2017-08-11T23:41:43.373Z,12.40
2017-08-11T23:44:10.919Z,12.50
2017-08-11T23:46:38.427Z,12.50
2017-08-11T23:49:05.931Z,12.50
2017-08-11T23:51:33.464Z,12.50
2017-08-11T23:54:01.736Z,12.60
2017-08-11T23:56:30.043Z,12.50
2017-08-11T23:58:57.543Z,12.50
